createdAt,value
2022-11-27T00:00:23.938Z,959.5
2022-11-27T00:01:25.611Z,959.5
2022-11-27T00:02:27.430Z,959.5
2022-11-27T00:03:29.816Z,959.5
2022-11-27T00:04:31.825Z,959.6
2022-11-27T00:05:33.429Z,959.6
2022-11-27T00:06:35.111Z,959.5
2022-11-27T00:07:37.017Z,959.6
2022-11-27T00:08:38.911Z,959.6
2022-11-27T00:09:41.689Z,959.5
2022-11-27T00:10:44.077Z,959.6
2022-11-27T00:11:45.764Z,959.5
2022-11-27T00:12:47.427Z,959.5
2022-11-27T00:13:49.046Z,959.6
2022-11-27T00:14:56.052Z,959.6
2022-11-27T00:15:58.127Z,959.5
2022-11-27T00:17:00.124Z,959.5
2022-11-27T00:18:01.699Z,959.5
2022-11-27T00:19:03.283Z,959.5
2022-11-27T00:20:04.861Z,959.4
2022-11-27T00:21:06.494Z,959.4
2022-11-27T00:22:08.104Z,959.4
2022-11-27T00:23:09.711Z,959.4
2022-11-27T00:24:11.304Z,959.5
2022-11-27T00:25:12.979Z,959.5
2022-11-27T00:26:14.783Z,959.5
2022-11-27T00:27:16.393Z,959.6
2022-11-27T00:28:18.014Z,959.5
2022-11-27T00:29:19.656Z,959.6
2022-11-27T00:30:21.427Z,959.6
2022-11-27T00:31:23.557Z,959.6
2022-11-27T00:32:25.435Z,959.6
2022-11-27T00:33:27.031Z,959.7
2022-11-27T00:34:28.636Z,959.7
2022-11-27T00:35:30.239Z,959.7
2022-11-27T00:36:31.885Z,959.7
2022-11-27T00:37:33.499Z,959.6
2022-11-27T00:38:39.735Z,959.6
2022-11-27T00:39:41.327Z,959.7
2022-11-27T00:40:42.987Z,959.6
2022-11-27T00:41:44.794Z,959.7
2022-11-27T00:42:46.543Z,959.6
2022-11-27T00:43:48.220Z,959.7
2022-11-27T00:44:49.832Z,959.7
2022-11-27T00:45:51.445Z,959.7
2022-11-27T00:46:53.594Z,959.7
2022-11-27T00:47:55.414Z,959.7
2022-11-27T00:48:57.045Z,959.7
2022-11-27T00:49:58.639Z,959.7
2022-11-27T00:51:00.299Z,959.7
2022-11-27T00:52:01.918Z,959.6
2022-11-27T00:53:03.513Z,959.7
2022-11-27T00:54:05.121Z,959.7
2022-11-27T00:55:06.725Z,959.7
2022-11-27T00:56:08.460Z,959.7
2022-11-27T00:57:10.159Z,959.7
2022-11-27T00:58:11.763Z,959.6
2022-11-27T00:59:13.377Z,959.7
2022-11-27T01:00:14.994Z,959.6
2022-11-27T01:01:16.975Z,959.7
2022-11-27T01:02:18.740Z,959.7
2022-11-27T01:03:20.441Z,959.7
2022-11-27T01:04:22.050Z,959.7
2022-11-27T01:05:26.632Z,959.7
2022-11-27T01:06:28.302Z,959.7
2022-11-27T01:07:30.149Z,959.6
2022-11-27T01:08:32.035Z,959.6
2022-11-27T01:09:33.617Z,959.6
2022-11-27T01:10:35.232Z,959.6
2022-11-27T01:11:36.925Z,959.6
2022-11-27T01:12:38.629Z,959.5
2022-11-27T01:13:40.237Z,959.6
2022-11-27T01:14:42.550Z,959.5
2022-11-27T01:15:44.526Z,959.5
2022-11-27T01:16:46.529Z,959.4
2022-11-27T01:17:48.124Z,959.4
2022-11-27T01:18:49.705Z,959.4
2022-11-27T01:19:51.437Z,959.4
2022-11-27T01:20:53.046Z,959.5
2022-11-27T01:21:54.766Z,959.5
2022-11-27T01:22:56.509Z,959.5
2022-11-27T01:23:58.258Z,959.5
2022-11-27T01:25:00.011Z,959.5
2022-11-27T01:26:01.663Z,959.5
2022-11-27T01:27:03.441Z,959.6
2022-11-27T01:28:05.186Z,959.5
2022-11-27T01:29:07.066Z,959.5
2022-11-27T01:30:08.946Z,959.5
2022-11-27T01:31:11.071Z,959.5
2022-11-27T01:32:12.861Z,959.5
2022-11-27T01:33:14.492Z,959.5
2022-11-27T01:34:16.150Z,959.5
2022-11-27T01:35:17.860Z,959.4
2022-11-27T01:36:19.712Z,959.5
2022-11-27T01:37:21.456Z,959.5
2022-11-27T01:38:23.240Z,959.5
2022-11-27T01:39:24.996Z,959.5
2022-11-27T01:40:26.604Z,959.5
2022-11-27T01:41:28.191Z,959.5
2022-11-27T01:42:29.856Z,959.5
2022-11-27T01:43:31.548Z,959.4
2022-11-27T01:44:33.142Z,959.4
2022-11-27T01:45:34.747Z,959.4
2022-11-27T01:46:36.827Z,959.3
2022-11-27T01:47:38.761Z,959.4
2022-11-27T01:48:40.363Z,959.3
2022-11-27T01:49:41.975Z,959.4
2022-11-27T01:50:43.810Z,959.4
2022-11-27T01:51:45.392Z,959.3
2022-11-27T01:52:47.036Z,959.3
2022-11-27T01:53:48.648Z,959.3
2022-11-27T01:54:50.374Z,959.3
2022-11-27T01:55:52.005Z,959.3
2022-11-27T01:56:53.603Z,959.4
2022-11-27T01:57:55.308Z,959.3
2022-11-27T01:58:56.956Z,959.3
2022-11-27T01:59:58.611Z,959.3
2022-11-27T02:01:00.213Z,959.3
2022-11-27T02:02:02.038Z,959.3
2022-11-27T02:03:04.279Z,959.3
2022-11-27T02:04:06.121Z,959.3
2022-11-27T02:05:07.756Z,959.3
2022-11-27T02:06:09.356Z,959.4
2022-11-27T02:07:11.232Z,959.4
2022-11-27T02:08:13.178Z,959.4
2022-11-27T02:09:14.788Z,959.4
2022-11-27T02:10:16.401Z,959.4
2022-11-27T02:11:18.129Z,959.3
2022-11-27T02:12:19.720Z,959.4
2022-11-27T02:13:21.432Z,959.4
2022-11-27T02:14:23.133Z,959.4
2022-11-27T02:15:24.741Z,959.4
2022-11-27T02:16:26.699Z,959.4
2022-11-27T02:17:28.494Z,959.4
2022-11-27T02:18:30.098Z,959.4
2022-11-27T02:19:31.727Z,959.4
2022-11-27T02:20:33.423Z,959.4
2022-11-27T02:21:35.042Z,959.4
2022-11-27T02:22:36.636Z,959.4
2022-11-27T02:23:38.393Z,959.4
2022-11-27T02:24:40.971Z,959.4
2022-11-27T02:25:43.346Z,959.4
2022-11-27T02:26:44.975Z,959.4
2022-11-27T02:27:46.734Z,959.4
2022-11-27T02:28:48.557Z,959.4
2022-11-27T02:29:50.407Z,959.4
2022-11-27T02:30:52.266Z,959.4
2022-11-27T02:31:54.141Z,959.4
2022-11-27T02:32:55.749Z,959.4
2022-11-27T02:33:57.342Z,959.4
2022-11-27T02:34:58.941Z,959.4
2022-11-27T02:36:00.689Z,959.4
2022-11-27T02:37:02.615Z,959.4
2022-11-27T02:38:04.385Z,959.5
2022-11-27T02:39:06.120Z,959.4
2022-11-27T02:40:07.711Z,959.5
2022-11-27T02:41:09.343Z,959.4
2022-11-27T02:42:11.405Z,959.4
2022-11-27T02:43:13.306Z,959.5
2022-11-27T02:44:14.978Z,959.4
2022-11-27T02:45:16.621Z,959.4
2022-11-27T02:46:18.594Z,959.4
2022-11-27T02:47:20.519Z,959.4
2022-11-27T02:48:22.182Z,959.4
2022-11-27T02:49:23.938Z,959.4
2022-11-27T02:50:25.571Z,959.4
2022-11-27T02:51:27.187Z,959.5
2022-11-27T02:52:28.773Z,959.4
2022-11-27T02:53:30.401Z,959.4
2022-11-27T02:54:32.178Z,959.4
2022-11-27T02:55:33.794Z,959.4
2022-11-27T02:56:35.452Z,959.4
2022-11-27T02:57:37.511Z,959.4
2022-11-27T02:58:39.282Z,959.4
2022-11-27T02:59:40.994Z,959.4
2022-11-27T03:00:42.593Z,959.4
2022-11-27T03:01:44.614Z,959.4
2022-11-27T03:02:47.031Z,959.4
2022-11-27T03:03:48.773Z,959.4
2022-11-27T03:04:50.403Z,959.4
2022-11-27T03:05:52.062Z,959.4
2022-11-27T03:06:53.675Z,959.5
2022-11-27T03:07:55.507Z,959.4
2022-11-27T03:08:57.321Z,959.5
2022-11-27T03:09:59.006Z,959.5
2022-11-27T03:11:00.664Z,959.5
2022-11-27T03:12:02.369Z,959.5
2022-11-27T03:13:04.446Z,959.5
2022-11-27T03:14:06.269Z,959.4
2022-11-27T03:15:07.896Z,959.5
2022-11-27T03:16:09.816Z,959.5
2022-11-27T03:17:11.684Z,959.5
2022-11-27T03:18:13.291Z,959.5
2022-11-27T03:19:14.898Z,959.5
2022-11-27T03:20:16.700Z,959.5
2022-11-27T03:21:18.318Z,959.5
2022-11-27T03:22:19.969Z,959.5
2022-11-27T03:23:21.569Z,959.5
2022-11-27T03:24:23.161Z,959.5
2022-11-27T03:25:24.785Z,959.5
2022-11-27T03:26:26.385Z,959.5
2022-11-27T03:27:28.054Z,959.5
2022-11-27T03:28:30.149Z,959.5
2022-11-27T03:29:31.959Z,959.5
2022-11-27T03:30:33.547Z,959.5
2022-11-27T03:31:35.455Z,959.5
2022-11-27T03:32:37.270Z,959.5
2022-11-27T03:33:38.879Z,959.5
2022-11-27T03:34:41.452Z,959.5
2022-11-27T03:35:43.885Z,959.5
2022-11-27T03:36:45.545Z,959.5
2022-11-27T03:37:47.232Z,959.5
2022-11-27T03:38:48.824Z,959.5
2022-11-27T03:39:50.508Z,959.5
2022-11-27T03:40:52.219Z,959.5
2022-11-27T03:41:53.813Z,959.5
2022-11-27T03:42:55.452Z,959.5
2022-11-27T03:43:57.603Z,959.5
2022-11-27T03:44:59.425Z,959.5
2022-11-27T03:46:01.035Z,959.5
2022-11-27T03:47:02.763Z,959.5
2022-11-27T03:48:04.633Z,959.5
2022-11-27T03:49:06.221Z,959.5
2022-11-27T03:50:07.950Z,959.5
2022-11-27T03:51:09.899Z,959.4
2022-11-27T03:52:11.711Z,959.4
2022-11-27T03:53:13.343Z,959.4
2022-11-27T03:54:14.942Z,959.5
2022-11-27T03:55:16.594Z,959.5
2022-11-27T03:56:18.186Z,959.5
2022-11-27T03:57:19.855Z,959.5
2022-11-27T03:58:21.465Z,959.4
2022-11-27T03:59:23.591Z,959.5
2022-11-27T04:00:25.410Z,959.5
2022-11-27T04:01:27.129Z,959.5
2022-11-27T04:02:28.903Z,959.5
2022-11-27T04:03:30.703Z,959.5
2022-11-27T04:04:32.493Z,959.4
2022-11-27T04:05:34.071Z,959.4
2022-11-27T04:06:35.665Z,959.4
2022-11-27T04:07:37.534Z,959.3
2022-11-27T04:08:39.344Z,959.4
2022-11-27T04:09:40.969Z,959.4
2022-11-27T04:10:42.557Z,959.4
2022-11-27T04:11:44.170Z,959.4
2022-11-27T04:12:45.795Z,959.4
2022-11-27T04:13:47.443Z,959.4
2022-11-27T04:14:49.506Z,959.4
2022-11-27T04:15:51.729Z,959.4
2022-11-27T04:16:53.629Z,959.4
2022-11-27T04:17:55.305Z,959.4
2022-11-27T04:18:57.043Z,959.4
2022-11-27T04:19:58.634Z,959.4
2022-11-27T04:21:00.260Z,959.4
2022-11-27T04:22:01.859Z,959.4
2022-11-27T04:23:03.471Z,959.3
2022-11-27T04:24:05.111Z,959.3
2022-11-27T04:25:06.718Z,959.3
2022-11-27T04:26:08.305Z,959.3
2022-11-27T04:27:09.913Z,959.3
2022-11-27T04:28:11.585Z,959.3
2022-11-27T04:29:13.197Z,959.4
2022-11-27T04:30:15.311Z,959.4
2022-11-27T04:31:17.505Z,959.4
2022-11-27T04:32:19.407Z,959.4
2022-11-27T04:33:20.989Z,959.3
2022-11-27T04:34:22.626Z,959.3
2022-11-27T04:35:24.243Z,959.3
2022-11-27T04:36:25.852Z,959.3
2022-11-27T04:37:27.531Z,959.3
2022-11-27T04:38:29.118Z,959.4
2022-11-27T04:39:30.741Z,959.4
2022-11-27T04:40:32.369Z,959.4
2022-11-27T04:41:33.940Z,959.5
2022-11-27T04:42:35.573Z,959.5
2022-11-27T04:43:37.170Z,959.5
2022-11-27T04:44:40.204Z,959.5
2022-11-27T04:45:42.657Z,959.5
2022-11-27T04:46:44.758Z,959.5
2022-11-27T04:47:46.544Z,959.5
2022-11-27T04:48:48.218Z,959.5
2022-11-27T04:49:49.811Z,959.5
2022-11-27T04:50:51.553Z,959.5
2022-11-27T04:51:53.137Z,959.5
2022-11-27T04:52:54.736Z,959.4
2022-11-27T04:53:56.331Z,959.5
2022-11-27T04:55:01.023Z,959.4
2022-11-27T04:56:02.683Z,959.5
2022-11-27T04:57:04.281Z,959.5
2022-11-27T04:58:05.859Z,959.5
2022-11-27T04:59:07.505Z,959.6
2022-11-27T05:00:09.115Z,959.6
2022-11-27T05:01:11.439Z,959.6
2022-11-27T05:02:19.305Z,959.6
2022-11-27T05:03:21.417Z,959.6
2022-11-27T05:04:23.296Z,959.5
2022-11-27T05:05:24.909Z,959.5
2022-11-27T05:06:26.548Z,959.5
2022-11-27T05:07:28.453Z,959.5
2022-11-27T05:08:30.210Z,959.5
2022-11-27T05:09:31.817Z,959.5
2022-11-27T05:10:33.406Z,959.5
2022-11-27T05:11:35.082Z,959.5
2022-11-27T05:12:36.691Z,959.5
2022-11-27T05:13:38.320Z,959.5
2022-11-27T05:14:40.988Z,959.4
2022-11-27T05:15:43.649Z,959.5
2022-11-27T05:16:45.780Z,959.5
2022-11-27T05:17:47.480Z,959.6
2022-11-27T05:18:49.310Z,959.6
2022-11-27T05:19:50.891Z,959.6
2022-11-27T05:20:52.526Z,959.6
2022-11-27T05:21:54.147Z,959.6
2022-11-27T05:22:55.743Z,959.6
2022-11-27T05:23:57.403Z,959.6
2022-11-27T05:24:58.991Z,959.6
2022-11-27T05:26:00.707Z,959.6
2022-11-27T05:27:02.368Z,959.6
2022-11-27T05:28:03.978Z,959.6
2022-11-27T05:29:05.568Z,959.6
2022-11-27T05:30:07.169Z,959.6
2022-11-27T05:31:09.208Z,959.6
2022-11-27T05:32:11.434Z,959.6
2022-11-27T05:33:13.260Z,959.6
2022-11-27T05:34:15.123Z,959.6
2022-11-27T05:35:16.765Z,959.7
2022-11-27T05:36:18.569Z,959.7
2022-11-27T05:37:20.583Z,959.7
2022-11-27T05:38:22.266Z,959.7
2022-11-27T05:39:23.975Z,959.7
2022-11-27T05:40:25.563Z,959.7
2022-11-27T05:41:27.241Z,959.6
2022-11-27T05:42:28.874Z,959.6
2022-11-27T05:43:30.476Z,959.6
2022-11-27T05:44:32.076Z,959.6
2022-11-27T05:45:33.694Z,959.7
2022-11-27T05:46:35.424Z,959.7
2022-11-27T05:47:37.722Z,959.8
2022-11-27T05:48:39.418Z,959.8
2022-11-27T05:49:41.285Z,959.8
2022-11-27T05:50:42.908Z,959.8
2022-11-27T05:51:52.140Z,959.8
2022-11-27T05:52:53.741Z,959.8
2022-11-27T05:53:55.352Z,959.7
2022-11-27T05:54:57.001Z,959.7
2022-11-27T05:55:58.626Z,959.7
2022-11-27T05:57:00.245Z,959.7
2022-11-27T05:58:01.867Z,959.7
2022-11-27T05:59:03.483Z,959.7
2022-11-27T06:00:05.117Z,959.7
2022-11-27T06:01:06.864Z,959.7
2022-11-27T06:02:08.989Z,959.7
2022-11-27T06:03:11.671Z,959.8
2022-11-27T06:04:13.483Z,959.7
2022-11-27T06:05:18.355Z,959.8
2022-11-27T06:06:19.973Z,959.8
2022-11-27T06:07:21.844Z,959.8
2022-11-27T06:08:23.602Z,959.9
2022-11-27T06:09:25.232Z,959.9
2022-11-27T06:10:26.851Z,959.9
2022-11-27T06:11:28.516Z,959.9
2022-11-27T06:12:30.170Z,959.9
2022-11-27T06:13:31.828Z,959.9
2022-11-27T06:14:33.475Z,959.9
2022-11-27T06:15:35.079Z,959.9
2022-11-27T06:16:37.411Z,959.8
2022-11-27T06:17:39.401Z,959.8
2022-11-27T06:18:47.276Z,959.8
2022-11-27T06:19:49.355Z,959.8
2022-11-27T06:20:53.548Z,959.9
2022-11-27T06:21:55.134Z,959.8
2022-11-27T06:22:56.739Z,959.9
2022-11-27T06:23:58.370Z,959.9
2022-11-27T06:25:00.025Z,959.9
2022-11-27T06:26:01.671Z,959.9
2022-11-27T06:27:03.360Z,959.9
2022-11-27T06:28:04.961Z,960
2022-11-27T06:29:06.564Z,959.9
2022-11-27T06:30:08.228Z,960
2022-11-27T06:31:18.687Z,959.9
2022-11-27T06:32:20.427Z,959.9
2022-11-27T06:33:22.020Z,959.9
2022-11-27T06:34:23.921Z,959.9
2022-11-27T06:35:31.477Z,959.8
2022-11-27T06:36:33.497Z,959.9
2022-11-27T06:37:35.156Z,959.8
2022-11-27T06:38:36.746Z,959.9
2022-11-27T06:39:41.448Z,959.9
2022-11-27T06:40:43.104Z,959.9
2022-11-27T06:41:44.719Z,959.9
2022-11-27T06:42:46.393Z,959.9
2022-11-27T06:43:48.056Z,959.9
2022-11-27T06:44:49.640Z,959.9
2022-11-27T06:45:51.424Z,959.9
2022-11-27T06:46:53.348Z,959.9
2022-11-27T06:47:55.120Z,959.9
2022-11-27T06:48:56.745Z,960
2022-11-27T06:49:58.890Z,959.9
2022-11-27T06:51:00.578Z,960
2022-11-27T06:52:02.452Z,960
2022-11-27T06:53:04.282Z,960
2022-11-27T06:54:05.887Z,959.9
2022-11-27T06:55:07.581Z,959.9
2022-11-27T06:56:09.165Z,959.9
2022-11-27T06:57:10.769Z,959.9
2022-11-27T06:58:12.369Z,959.9
2022-11-27T06:59:13.961Z,959.9
2022-11-27T07:00:15.622Z,959.9
2022-11-27T07:01:17.818Z,960
2022-11-27T07:02:20.168Z,959.9
2022-11-27T07:03:22.035Z,959.9
2022-11-27T07:04:23.642Z,959.9
2022-11-27T07:05:25.669Z,959.9
2022-11-27T07:06:27.277Z,959.9
2022-11-27T07:07:29.504Z,959.9
2022-11-27T07:08:31.383Z,959.9
2022-11-27T07:09:32.985Z,959.9
2022-11-27T07:10:34.636Z,959.9
2022-11-27T07:11:36.258Z,959.9
2022-11-27T07:12:37.904Z,959.9
2022-11-27T07:13:39.577Z,959.9
2022-11-27T07:14:41.990Z,959.9
2022-11-27T07:15:44.258Z,959.9
2022-11-27T07:16:46.154Z,959.9
2022-11-27T07:17:48.100Z,959.9
2022-11-27T07:18:49.696Z,959.9
2022-11-27T07:19:51.356Z,959.9
2022-11-27T07:20:57.204Z,959.9
2022-11-27T07:21:58.873Z,959.9
2022-11-27T07:23:00.824Z,959.9
2022-11-27T07:24:02.464Z,959.9
2022-11-27T07:25:04.075Z,959.9
2022-11-27T07:26:05.720Z,959.9
2022-11-27T07:27:07.323Z,959.9
2022-11-27T07:28:08.934Z,959.8
2022-11-27T07:29:10.631Z,959.8
2022-11-27T07:30:12.228Z,959.8
2022-11-27T07:31:14.213Z,959.8
2022-11-27T07:32:15.900Z,959.8
2022-11-27T07:33:17.570Z,959.8
2022-11-27T07:34:22.270Z,959.8
2022-11-27T07:35:23.888Z,959.9
2022-11-27T07:36:26.087Z,959.8
2022-11-27T07:37:27.736Z,959.8
2022-11-27T07:38:32.316Z,959.8
2022-11-27T07:40:03.905Z,959.8
2022-11-27T07:41:05.662Z,959.8
2022-11-27T07:42:39.509Z,959.8
2022-11-27T07:43:41.382Z,959.8
2022-11-27T07:44:43.547Z,959.8
2022-11-27T07:45:45.401Z,959.8
2022-11-27T07:46:47.105Z,959.8
2022-11-27T07:47:48.702Z,959.8
2022-11-27T07:48:50.415Z,959.8
2022-11-27T07:49:52.212Z,959.8
2022-11-27T07:50:53.888Z,959.8
2022-11-27T07:51:55.876Z,959.9
2022-11-27T07:52:57.477Z,959.9
2022-11-27T07:53:59.452Z,959.8
2022-11-27T07:55:01.147Z,959.8
2022-11-27T07:56:02.768Z,959.8
2022-11-27T07:57:04.383Z,959.8
2022-11-27T07:58:06.013Z,959.8
2022-11-27T07:59:07.682Z,959.8
2022-11-27T08:00:09.454Z,959.8
2022-11-27T08:01:11.646Z,959.8
2022-11-27T08:02:13.493Z,959.8
2022-11-27T08:03:15.122Z,959.8
2022-11-27T08:04:17.078Z,959.8
2022-11-27T08:05:19.195Z,959.8
2022-11-27T08:06:21.263Z,959.8
2022-11-27T08:07:23.546Z,959.8
2022-11-27T08:08:25.216Z,959.7
2022-11-27T08:09:27.173Z,959.7
2022-11-27T08:10:28.892Z,959.8
2022-11-27T08:11:30.528Z,959.8
2022-11-27T08:12:32.130Z,959.8
2022-11-27T08:13:33.769Z,959.8
2022-11-27T08:14:35.386Z,959.8
2022-11-27T08:15:36.991Z,959.8
2022-11-27T08:16:38.925Z,959.8
2022-11-27T08:17:40.811Z,959.8
2022-11-27T08:18:42.473Z,959.8
2022-11-27T08:19:44.288Z,959.8
2022-11-27T08:20:45.943Z,959.8
2022-11-27T08:21:47.547Z,959.8
2022-11-27T08:22:49.539Z,959.8
2022-11-27T08:23:51.153Z,959.8
2022-11-27T08:24:53.086Z,959.8
2022-11-27T08:25:54.704Z,959.8
2022-11-27T08:26:56.317Z,959.8
2022-11-27T08:27:58.090Z,959.8
2022-11-27T08:28:59.816Z,959.9
2022-11-27T08:30:01.553Z,959.9
2022-11-27T08:31:05.430Z,959.8
2022-11-27T08:32:07.337Z,959.9
2022-11-27T08:33:09.248Z,959.9
2022-11-27T08:34:10.840Z,959.9
2022-11-27T08:35:12.968Z,959.8
2022-11-27T08:36:18.909Z,959.7
2022-11-27T08:37:20.527Z,959.7
2022-11-27T08:38:22.605Z,959.7
2022-11-27T08:39:24.215Z,959.7
2022-11-27T08:40:26.134Z,959.7
2022-11-27T08:41:27.768Z,959.7
2022-11-27T08:42:29.364Z,959.7
2022-11-27T08:43:31.038Z,959.7
2022-11-27T08:44:32.623Z,959.7
2022-11-27T08:45:34.343Z,959.7
2022-11-27T08:46:36.160Z,959.7
2022-11-27T08:47:37.772Z,959.7
2022-11-27T08:48:39.475Z,959.7
2022-11-27T08:49:46.759Z,959.6
2022-11-27T08:50:48.434Z,959.7
2022-11-27T08:51:50.146Z,959.6
2022-11-27T08:52:51.723Z,959.7
2022-11-27T08:53:53.743Z,959.7
2022-11-27T08:54:58.461Z,959.6
2022-11-27T08:56:00.408Z,959.6
2022-11-27T08:57:02.072Z,959.6
2022-11-27T08:58:03.705Z,959.5
2022-11-27T08:59:05.379Z,959.5
2022-11-27T09:00:07.002Z,959.6
2022-11-27T09:01:08.891Z,959.5
2022-11-27T09:02:10.644Z,959.5
2022-11-27T09:03:12.237Z,959.5
2022-11-27T09:04:14.215Z,959.5
2022-11-27T09:05:15.937Z,959.5
2022-11-27T09:06:17.622Z,959.5
2022-11-27T09:07:19.493Z,959.5
2022-11-27T09:08:21.243Z,959.5
2022-11-27T09:09:23.353Z,959.4
2022-11-27T09:10:25.036Z,959.5
2022-11-27T09:11:26.946Z,959.5
2022-11-27T09:12:28.618Z,959.4
2022-11-27T09:13:30.216Z,959.4
2022-11-27T09:14:31.835Z,959.5
2022-11-27T09:15:33.587Z,959.4
2022-11-27T09:16:35.667Z,959.5
2022-11-27T09:17:37.594Z,959.5
2022-11-27T09:18:39.340Z,959.5
2022-11-27T09:19:40.973Z,959.5
2022-11-27T09:20:42.705Z,959.5
2022-11-27T09:21:44.341Z,959.5
2022-11-27T09:22:46.068Z,959.5
2022-11-27T09:23:47.810Z,959.5
2022-11-27T09:24:49.764Z,959.4
2022-11-27T09:25:51.337Z,959.5
2022-11-27T09:26:53.280Z,959.5
2022-11-27T09:27:54.901Z,959.4
2022-11-27T09:28:56.502Z,959.4
2022-11-27T09:29:58.158Z,959.4
2022-11-27T09:30:59.963Z,959.4
2022-11-27T09:32:02.075Z,959.3
2022-11-27T09:33:03.952Z,959.3
2022-11-27T09:34:05.623Z,959.3
2022-11-27T09:35:07.444Z,959.3
2022-11-27T09:36:09.252Z,959.3
2022-11-27T09:37:11.035Z,959.3
2022-11-27T09:38:12.686Z,959.3
2022-11-27T09:39:14.294Z,959.3
2022-11-27T09:40:16.290Z,959.2
2022-11-27T09:41:18.242Z,959.3
2022-11-27T09:42:20.200Z,959.2
2022-11-27T09:43:21.914Z,959.3
2022-11-27T09:44:23.587Z,959.2
2022-11-27T09:45:25.380Z,959.2
2022-11-27T09:46:27.477Z,959.2
2022-11-27T09:47:29.115Z,959.2
2022-11-27T09:48:30.697Z,959.2
2022-11-27T09:49:32.341Z,959.2
2022-11-27T09:50:34.017Z,959.2
2022-11-27T09:51:35.661Z,959.1
2022-11-27T09:52:37.424Z,959.1
2022-11-27T09:53:39.149Z,959.1
2022-11-27T09:54:41.776Z,959.1
2022-11-27T09:55:44.847Z,959.1
2022-11-27T09:56:46.520Z,959
2022-11-27T09:57:48.460Z,959
2022-11-27T09:58:50.115Z,959
2022-11-27T09:59:51.751Z,959
2022-11-27T10:00:53.443Z,959
2022-11-27T10:01:55.550Z,959
2022-11-27T10:02:57.965Z,959
2022-11-27T10:03:59.955Z,958.9
2022-11-27T10:05:18.964Z,959
2022-11-27T10:06:21.584Z,958.9
2022-11-27T10:07:23.578Z,958.9
2022-11-27T10:08:25.380Z,958.9
2022-11-27T10:09:26.976Z,958.8
2022-11-27T10:10:28.555Z,958.8
2022-11-27T10:11:30.423Z,958.8
2022-11-27T10:12:32.059Z,958.8
2022-11-27T10:13:33.927Z,958.8
2022-11-27T10:14:35.657Z,958.8
2022-11-27T10:15:37.255Z,958.8
2022-11-27T10:31:44.377Z,958.8
2022-11-27T10:32:56.952Z,958.5
2022-11-27T10:33:59.116Z,958.5
2022-11-27T10:35:00.737Z,958.5
2022-11-27T10:36:02.390Z,958.5
2022-11-27T10:37:04.493Z,958.5
2022-11-27T10:38:07.735Z,958.5
2022-11-27T10:39:09.488Z,958.5
2022-11-27T10:40:11.095Z,958.5
2022-11-27T10:41:50.095Z,958.5
2022-11-27T10:42:51.939Z,958.4
2022-11-27T10:43:53.541Z,958.4
2022-11-27T10:44:55.123Z,958.4
2022-11-27T10:45:56.967Z,958.4
2022-11-27T10:46:58.827Z,958.4
2022-11-27T10:48:01.071Z,958.4
2022-11-27T10:49:02.673Z,958.4
2022-11-27T10:50:04.261Z,958.4
2022-11-27T10:51:05.861Z,958.4
2022-11-27T10:52:07.460Z,958.4
2022-11-27T10:53:09.102Z,958.4
2022-11-27T10:54:10.685Z,958.3
2022-11-27T10:55:12.316Z,958.3
2022-11-27T10:56:14.013Z,958.3
2022-11-27T10:57:15.608Z,958.4
2022-11-27T10:58:17.226Z,958.3
2022-11-27T10:59:18.828Z,958.3
2022-11-27T11:00:20.471Z,958.3
2022-11-27T11:01:22.359Z,958.3
2022-11-27T11:02:24.616Z,958.3
2022-11-27T11:03:26.982Z,958.3
2022-11-27T11:04:44.156Z,958.3
2022-11-27T11:06:23.107Z,958.3
2022-11-27T11:07:26.368Z,958.3
2022-11-27T11:08:28.359Z,958.3
2022-11-27T11:09:29.988Z,958.3
2022-11-27T11:10:31.637Z,958.3
2022-11-27T11:11:33.237Z,958.3
2022-11-27T11:12:35.024Z,958.2
2022-11-27T11:13:36.695Z,958.3
2022-11-27T11:14:39.646Z,958.3
2022-11-27T11:15:51.864Z,958.3
2022-11-27T11:16:54.054Z,958.3
2022-11-27T11:17:56.104Z,958.2
2022-11-27T11:18:58.205Z,958.2
2022-11-27T11:19:59.780Z,958.2
2022-11-27T11:21:01.372Z,958.2
2022-11-27T11:22:02.977Z,958.2
2022-11-27T11:23:04.668Z,958.2
2022-11-27T11:24:06.298Z,958.1
2022-11-27T11:25:07.900Z,958.1
2022-11-27T11:26:09.484Z,958.1
2022-11-27T11:27:11.147Z,958.1
2022-11-27T11:28:12.756Z,958.1
2022-11-27T11:29:14.390Z,958.1
2022-11-27T11:30:15.988Z,958
2022-11-27T11:31:17.864Z,958.1
2022-11-27T11:32:19.680Z,958.1
2022-11-27T11:33:21.457Z,958
2022-11-27T11:34:23.500Z,958
2022-11-27T11:35:25.208Z,958
2022-11-27T11:36:26.837Z,958
2022-11-27T11:37:28.431Z,957.9
2022-11-27T11:38:30.017Z,957.9
2022-11-27T11:39:31.699Z,957.9
2022-11-27T11:40:33.341Z,957.9
2022-11-27T11:41:34.923Z,957.9
2022-11-27T11:42:36.540Z,957.9
2022-11-27T11:43:38.159Z,957.9
2022-11-27T11:44:41.038Z,957.9
2022-11-27T11:45:43.462Z,957.9
2022-11-27T11:46:45.280Z,957.9
2022-11-27T11:47:46.870Z,957.9
2022-11-27T11:48:48.599Z,957.9
2022-11-27T11:49:50.732Z,957.8
2022-11-27T11:50:52.417Z,957.8
2022-11-27T11:51:54.023Z,957.8
2022-11-27T11:52:55.624Z,957.8
2022-11-27T11:53:57.416Z,957.8
2022-11-27T11:54:59.079Z,957.8
2022-11-27T11:56:00.707Z,957.8
2022-11-27T11:57:02.333Z,957.8
2022-11-27T11:58:03.984Z,957.8
2022-11-27T11:59:06.090Z,957.8
2022-11-27T12:00:07.688Z,957.8
2022-11-27T12:01:28.024Z,957.7
2022-11-27T12:02:29.992Z,957.8
2022-11-27T12:03:31.754Z,957.7
2022-11-27T12:04:33.931Z,957.8
2022-11-27T12:05:36.300Z,957.8
2022-11-27T12:06:37.908Z,957.8
2022-11-27T12:07:39.770Z,957.8
2022-11-27T12:08:41.688Z,957.8
2022-11-27T12:09:43.302Z,957.8
2022-11-27T12:10:44.908Z,957.7
2022-11-27T12:11:46.510Z,957.7
2022-11-27T12:12:48.264Z,957.7
2022-11-27T12:13:49.871Z,957.7
2022-11-27T12:14:51.487Z,957.6
2022-11-27T12:15:53.095Z,957.6
2022-11-27T12:16:55.008Z,957.6
2022-11-27T12:17:56.844Z,957.6
2022-11-27T12:18:58.434Z,957.6
2022-11-27T12:20:00.222Z,957.6
2022-11-27T12:21:02.411Z,957.6
2022-11-27T12:22:04.334Z,957.6
2022-11-27T12:23:06.122Z,957.6
2022-11-27T12:24:07.830Z,957.5
2022-11-27T12:25:09.471Z,957.6
2022-11-27T12:26:11.057Z,957.5
2022-11-27T12:27:12.662Z,957.6
2022-11-27T12:28:14.330Z,957.5
2022-11-27T12:29:15.923Z,957.6
2022-11-27T12:30:17.587Z,957.5
2022-11-27T12:31:19.499Z,957.5
2022-11-27T12:32:21.389Z,957.5
2022-11-27T12:33:23.109Z,957.5
2022-11-27T12:34:24.924Z,957.5
2022-11-27T12:35:26.728Z,957.5
2022-11-27T12:36:28.831Z,957.5
2022-11-27T12:37:30.475Z,957.5
2022-11-27T12:38:32.085Z,957.5
2022-11-27T12:39:33.687Z,957.5
2022-11-27T12:40:35.392Z,957.5
2022-11-27T12:41:36.985Z,957.5
2022-11-27T12:42:38.590Z,957.5
2022-11-27T12:43:40.178Z,957.5
2022-11-27T12:44:42.954Z,957.5
2022-11-27T12:45:45.301Z,957.4
2022-11-27T12:46:47.295Z,957.5
2022-11-27T12:47:48.889Z,957.5
2022-11-27T12:48:50.489Z,957.5
2022-11-27T12:49:52.104Z,957.5
2022-11-27T12:50:53.839Z,957.5
2022-11-27T12:51:56.067Z,957.4
2022-11-27T12:52:57.677Z,957.4
2022-11-27T12:53:59.281Z,957.4
2022-11-27T12:55:00.902Z,957.5
2022-11-27T12:56:02.760Z,957.4
2022-11-27T12:57:04.404Z,957.4
2022-11-27T12:58:06.041Z,957.4
2022-11-27T12:59:07.694Z,957.4
2022-11-27T13:00:09.325Z,957.4
2022-11-27T13:01:11.350Z,957.4
2022-11-27T13:02:13.461Z,957.4
2022-11-27T13:03:15.294Z,957.4
2022-11-27T13:04:16.895Z,957.4
2022-11-27T13:05:18.570Z,957.4
2022-11-27T13:06:20.359Z,957.4
2022-11-27T13:07:22.864Z,957.4
2022-11-27T13:08:24.709Z,957.4
2022-11-27T13:09:26.309Z,957.4
2022-11-27T13:10:27.901Z,957.4
2022-11-27T13:11:29.550Z,957.4
2022-11-27T13:12:31.160Z,957.4
2022-11-27T13:13:32.870Z,957.4
2022-11-27T13:14:34.623Z,957.4
2022-11-27T13:15:36.231Z,957.4
2022-11-27T13:16:38.534Z,957.4
2022-11-27T13:17:40.345Z,957.4
2022-11-27T13:18:41.966Z,957.4
2022-11-27T13:19:43.579Z,957.4
2022-11-27T13:20:53.073Z,957.4
2022-11-27T13:21:54.919Z,957.4
2022-11-27T13:22:57.208Z,957.4
2022-11-27T13:23:58.863Z,957.4
2022-11-27T13:25:00.462Z,957.4
2022-11-27T13:26:02.060Z,957.4
2022-11-27T13:27:03.677Z,957.4
2022-11-27T13:28:05.289Z,957.4
2022-11-27T13:29:06.934Z,957.4
2022-11-27T13:30:08.553Z,957.4
2022-11-27T13:31:10.290Z,957.4
2022-11-27T13:32:11.938Z,957.3
2022-11-27T13:33:13.554Z,957.4
2022-11-27T13:34:15.227Z,957.3
2022-11-27T13:35:16.858Z,957.3
2022-11-27T13:36:18.475Z,957.3